sensor_id;sensor_type;location;lat;lon;timestamp;pressure;altitude;pressure_sealevel;temperature;humidity
15794;BME280;7999;51.208;4.244;2023-01-28T00:02:07;102904.75;;;3.08;100.00
15794;BME280;7999;51.208;4.244;2023-01-28T00:04:34;102899.41;;;2.92;100.00
15794;BME280;7999;51.208;4.244;2023-01-28T00:07:01;102898.72;;;2.95;100.00
15794;BME280;7999;51.208;4.244;2023-01-28T00:09:30;102903.84;;;2.95;100.00
15794;BME280;7999;51.208;4.244;2023-01-28T00:11:57;102903.25;;;2.99;100.00
15794;BME280;7999;51.208;4.244;2023-01-28T00:14:23;102899.88;;;3.00;100.00
15794;BME280;7999;51.208;4.244;2023-01-28T00:16:50;102901.78;;;3.02;100.00
15794;BME280;7999;51.208;4.244;2023-01-28T00:19:17;102907.22;;;2.94;100.00
15794;BME280;7999;51.208;4.244;2023-01-28T00:21:43;102900.50;;;2.83;100.00
15794;BME280;7999;51.208;4.244;2023-01-28T00:24:11;102909.81;;;2.81;100.00
15794;BME280;7999;51.208;4.244;2023-01-28T00:26:39;102912.97;;;2.76;100.00
15794;BME280;7999;51.208;4.244;2023-01-28T00:29:06;102915.31;;;2.87;100.00
15794;BME280;7999;51.208;4.244;2023-01-28T00:31:32;102920.66;;;2.90;100.00
15794;BME280;7999;51.208;4.244;2023-01-28T00:33:59;102924.63;;;2.85;100.00
15794;BME280;7999;51.208;4.244;2023-01-28T00:36:26;102921.84;;;2.82;100.00
15794;BME280;7999;51.208;4.244;2023-01-28T00:38:54;102922.53;;;2.79;100.00
15794;BME280;7999;51.208;4.244;2023-01-28T00:41:21;102925.81;;;2.76;100.00
15794;BME280;7999;51.208;4.244;2023-01-28T00:43:51;102925.72;;;2.75;100.00
15794;BME280;7999;51.208;4.244;2023-01-28T00:46:17;102916.59;;;2.67;100.00
15794;BME280;7999;51.208;4.244;2023-01-28T00:48:45;102926.06;;;2.68;100.00
15794;BME280;7999;51.208;4.244;2023-01-28T00:51:12;102926.19;;;2.69;100.00
15794;BME280;7999;51.208;4.244;2023-01-28T00:53:39;102920.66;;;2.63;100.00
15794;BME280;7999;51.208;4.244;2023-01-28T00:56:07;102922.22;;;2.61;100.00
15794;BME280;7999;51.208;4.244;2023-01-28T00:58:33;102924.69;;;2.60;100.00
15794;BME280;7999;51.208;4.244;2023-01-28T01:01:06;102926.78;;;2.52;100.00
15794;BME280;7999;51.208;4.244;2023-01-28T01:03:34;102938.81;;;2.53;100.00
15794;BME280;7999;51.208;4.244;2023-01-28T01:06:00;102933.28;;;2.47;100.00
15794;BME280;7999;51.208;4.244;2023-01-28T01:08:27;102934.28;;;2.49;100.00
15794;BME280;7999;51.208;4.244;2023-01-28T01:10:59;102924.00;;;2.49;100.00
15794;BME280;7999;51.208;4.244;2023-01-28T01:13:26;102931.72;;;2.49;100.00
15794;BME280;7999;51.208;4.244;2023-01-28T01:15:59;102930.72;;;2.47;100.00
15794;BME280;7999;51.208;4.244;2023-01-28T01:18:27;102921.22;;;2.46;100.00
15794;BME280;7999;51.208;4.244;2023-01-28T01:20:54;102917.88;;;2.47;100.00
15794;BME280;7999;51.208;4.244;2023-01-28T01:23:23;102912.84;;;2.62;100.00
15794;BME280;7999;51.208;4.244;2023-01-28T01:25:50;102917.19;;;2.50;100.00
15794;BME280;7999;51.208;4.244;2023-01-28T01:28:17;102927.94;;;2.44;100.00
15794;BME280;7999;51.208;4.244;2023-01-28T01:30:44;102930.81;;;2.48;100.00
15794;BME280;7999;51.208;4.244;2023-01-28T01:33:11;102938.19;;;2.44;100.00
15794;BME280;7999;51.208;4.244;2023-01-28T01:35:39;102920.81;;;2.40;100.00
15794;BME280;7999;51.208;4.244;2023-01-28T01:38:06;102928.50;;;2.40;100.00
15794;BME280;7999;51.208;4.244;2023-01-28T01:40:33;102927.22;;;2.46;100.00
15794;BME280;7999;51.208;4.244;2023-01-28T01:42:59;102930.72;;;2.47;100.00
15794;BME280;7999;51.208;4.244;2023-01-28T01:45:26;102922.44;;;2.51;100.00
15794;BME280;7999;51.208;4.244;2023-01-28T01:47:57;102930.22;;;2.53;100.00
15794;BME280;7999;51.208;4.244;2023-01-28T01:50:25;102914.72;;;2.51;100.00
15794;BME280;7999;51.208;4.244;2023-01-28T01:52:56;102920.66;;;2.50;100.00
15794;BME280;7999;51.208;4.244;2023-01-28T01:55:25;102916.06;;;2.46;100.00
15794;BME280;7999;51.208;4.244;2023-01-28T01:57:53;102925.94;;;2.40;100.00
15794;BME280;7999;51.208;4.244;2023-01-28T02:00:22;102927.44;;;2.36;100.00
15794;BME280;7999;51.208;4.244;2023-01-28T02:02:49;102929.50;;;2.42;100.00
15794;BME280;7999;51.208;4.244;2023-01-28T02:05:18;102925.94;;;2.40;100.00
15794;BME280;7999;51.208;4.244;2023-01-28T02:07:45;102924.91;;;2.50;100.00
15794;BME280;7999;51.208;4.244;2023-01-28T02:10:14;102932.91;;;2.54;100.00
15794;BME280;7999;51.208;4.244;2023-01-28T02:12:41;102923.50;;;2.55;100.00
15794;BME280;7999;51.208;4.244;2023-01-28T02:15:10;102924.97;;;2.38;100.00
15794;BME280;7999;51.208;4.244;2023-01-28T02:17:37;102935.31;;;2.39;100.00
15794;BME280;7999;51.208;4.244;2023-01-28T02:20:04;102929.69;;;2.45;100.00
15794;BME280;7999;51.208;4.244;2023-01-28T02:28:12;102938.69;;;2.38;100.00
15794;BME280;7999;51.208;4.244;2023-01-28T02:30:44;102941.16;;;2.37;100.00
15794;BME280;7999;51.208;4.244;2023-01-28T02:33:15;102941.34;;;2.40;100.00
15794;BME280;7999;51.208;4.244;2023-01-28T02:35:46;102941.16;;;2.37;100.00
15794;BME280;7999;51.208;4.244;2023-01-28T02:38:14;102940.25;;;2.36;100.00
15794;BME280;7999;51.208;4.244;2023-01-28T02:40:42;102932.47;;;2.35;100.00
15794;BME280;7999;51.208;4.244;2023-01-28T02:43:33;102940.56;;;2.41;100.00
15794;BME280;7999;51.208;4.244;2023-01-28T02:46:02;102938.81;;;2.53;100.00
15794;BME280;7999;51.208;4.244;2023-01-28T02:48:54;102931.66;;;2.36;100.00
15794;BME280;7999;51.208;4.244;2023-01-28T02:51:23;102930.88;;;2.37;100.00
15794;BME280;7999;51.208;4.244;2023-01-28T02:53:54;102936.63;;;2.46;100.00
15794;BME280;7999;51.208;4.244;2023-01-28T02:56:25;102929.50;;;2.29;100.00
15794;BME280;7999;51.208;4.244;2023-01-28T02:59:00;102931.06;;;2.27;100.00
15794;BME280;7999;51.208;4.244;2023-01-28T03:01:54;102928.41;;;2.25;100.00
15794;BME280;7999;51.208;4.244;2023-01-28T03:04:23;102933.34;;;2.22;100.00
15794;BME280;7999;51.208;4.244;2023-01-28T03:06:54;102943.69;;;2.24;100.00
15794;BME280;7999;51.208;4.244;2023-01-28T03:09:23;102948.63;;;2.21;100.00
15794;BME280;7999;51.208;4.244;2023-01-28T03:11:53;102948.63;;;2.21;100.00
15794;BME280;7999;51.208;4.244;2023-01-28T03:14:40;102961.31;;;2.19;100.00
15794;BME280;7999;51.208;4.244;2023-01-28T03:17:35;102959.09;;;2.24;100.00
15794;BME280;7999;51.208;4.244;2023-01-28T03:20:21;102958.00;;;2.20;100.00
15794;BME280;7999;51.208;4.244;2023-01-28T03:23:08;102954.75;;;2.23;100.00
15794;BME280;7999;51.208;4.244;2023-01-28T03:25:55;102956.88;;;2.16;100.00
15794;BME280;7999;51.208;4.244;2023-01-28T03:28:41;102950.97;;;2.17;100.00
15794;BME280;7999;51.208;4.244;2023-01-28T03:31:28;102950.41;;;2.22;100.00
15794;BME280;7999;51.208;4.244;2023-01-28T03:34:12;102954.66;;;2.21;100.00
15794;BME280;7999;51.208;4.244;2023-01-28T03:36:57;102960.78;;;2.23;100.00
15794;BME280;7999;51.208;4.244;2023-01-28T03:39:33;102956.53;;;2.24;100.00
15794;BME280;7999;51.208;4.244;2023-01-28T03:42:02;102960.34;;;2.17;100.00
15794;BME280;7999;51.208;4.244;2023-01-28T03:44:30;102962.78;;;2.15;100.00
15794;BME280;7999;51.208;4.244;2023-01-28T03:47:19;102961.66;;;2.24;100.00
15794;BME280;7999;51.208;4.244;2023-01-28T03:49:47;102969.34;;;2.24;100.00
15794;BME280;7999;51.208;4.244;2023-01-28T03:52:18;102964.03;;;2.21;100.00
15794;BME280;7999;51.208;4.244;2023-01-28T03:54:45;102979.66;;;2.12;100.00
15794;BME280;7999;51.208;4.244;2023-01-28T03:57:14;102975.31;;;2.11;100.00
15794;BME280;7999;51.208;4.244;2023-01-28T03:59:41;102968.91;;;2.17;100.00
15794;BME280;7999;51.208;4.244;2023-01-28T04:02:08;102975.63;;;2.15;100.00
15794;BME280;7999;51.208;4.244;2023-01-28T04:04:37;102972.50;;;2.20;100.00
15794;BME280;7999;51.208;4.244;2023-01-28T04:07:05;102970.69;;;2.18;100.00
15794;BME280;7999;51.208;4.244;2023-01-28T04:09:53;102970.50;;;2.15;100.00
15794;BME280;7999;51.208;4.244;2023-01-28T04:12:26;102972.75;;;2.11;100.00
15794;BME280;7999;51.208;4.244;2023-01-28T04:14:53;102975.28;;;2.23;100.00
15794;BME280;7999;51.208;4.244;2023-01-28T04:17:25;102981.34;;;2.11;100.00
15794;BME280;7999;51.208;4.244;2023-01-28T04:19:53;102980.34;;;2.09;100.00
15794;BME280;7999;51.208;4.244;2023-01-28T04:22:20;102971.56;;;2.06;100.00
15794;BME280;7999;51.208;4.244;2023-01-28T04:24:49;102978.94;;;2.01;100.00
15794;BME280;7999;51.208;4.244;2023-01-28T04:27:16;102973.81;;;2.01;100.00
15794;BME280;7999;51.208;4.244;2023-01-28T04:29:43;102985.44;;;1.96;100.00
15794;BME280;7999;51.208;4.244;2023-01-28T04:32:29;102991.34;;;1.95;100.00
15794;BME280;7999;51.208;4.244;2023-01-28T04:35:16;102990.31;;;2.05;100.00
15794;BME280;7999;51.208;4.244;2023-01-28T04:37:53;102988.41;;;2.02;100.00
15794;BME280;7999;51.208;4.244;2023-01-28T04:40:28;102996.50;;;1.95;100.00
15794;BME280;7999;51.208;4.244;2023-01-28T04:43:15;102983.09;;;1.88;100.00
15794;BME280;7999;51.208;4.244;2023-01-28T04:45:50;102986.47;;;1.86;100.00
15794;BME280;7999;51.208;4.244;2023-01-28T04:48:38;102990.22;;;1.92;100.00
15794;BME280;7999;51.208;4.244;2023-01-28T04:51:20;102989.13;;;1.88;100.00
15794;BME280;7999;51.208;4.244;2023-01-28T04:54:01;102982.44;;;1.90;100.00
15794;BME280;7999;51.208;4.244;2023-01-28T04:56:30;102986.66;;;1.90;100.00
15794;BME280;7999;51.208;4.244;2023-01-28T04:58:58;102991.38;;;1.83;100.00
15794;BME280;7999;51.208;4.244;2023-01-28T05:01:24;102984.88;;;1.89;100.00
15794;BME280;7999;51.208;4.244;2023-01-28T05:03:52;102990.69;;;1.86;100.00
15794;BME280;7999;51.208;4.244;2023-01-28T05:06:26;102981.44;;;1.88;100.00
15794;BME280;7999;51.208;4.244;2023-01-28T05:08:55;102981.09;;;1.95;100.00
15794;BME280;7999;51.208;4.244;2023-01-28T05:11:22;102981.63;;;1.91;100.00
15794;BME280;7999;51.208;4.244;2023-01-28T05:13:53;102982.00;;;1.84;100.00
15794;BME280;7999;51.208;4.244;2023-01-28T05:16:20;102986.03;;;1.80;100.00
15794;BME280;7999;51.208;4.244;2023-01-28T05:18:46;102985.56;;;1.86;100.00
15794;BME280;7999;51.208;4.244;2023-01-28T05:21:17;102977.09;;;1.87;100.00
15794;BME280;7999;51.208;4.244;2023-01-28T05:23:51;102983.78;;;1.85;100.00
15794;BME280;7999;51.208;4.244;2023-01-28T05:26:17;102981.81;;;1.81;100.00
15794;BME280;7999;51.208;4.244;2023-01-28T05:28:48;102978.66;;;1.85;100.00
15794;BME280;7999;51.208;4.244;2023-01-28T05:31:15;102970.25;;;1.74;100.00
15794;BME280;7999;51.208;4.244;2023-01-28T05:33:42;102985.16;;;1.80;100.00
15794;BME280;7999;51.208;4.244;2023-01-28T05:36:10;102985.56;;;1.86;100.00
15794;BME280;7999;51.208;4.244;2023-01-28T05:38:38;102995.25;;;1.90;100.00
15794;BME280;7999;51.208;4.244;2023-01-28T05:41:07;102991.16;;;1.92;100.00
15794;BME280;7999;51.208;4.244;2023-01-28T05:43:34;102988.25;;;1.88;100.00
15794;BME280;7999;51.208;4.244;2023-01-28T05:46:10;102996.72;;;1.86;100.00
15794;BME280;7999;51.208;4.244;2023-01-28T05:49:06;103002.78;;;1.75;100.00
15794;BME280;7999;51.208;4.244;2023-01-28T05:52:06;102993.22;;;1.73;100.00
15794;BME280;7999;51.208;4.244;2023-01-28T05:54:35;102995.00;;;1.74;100.00
15794;BME280;7999;51.208;4.244;2023-01-28T05:57:03;102994.63;;;1.81;100.00
15794;BME280;7999;51.208;4.244;2023-01-28T05:59:32;103002.09;;;1.78;100.00
15794;BME280;7999;51.208;4.244;2023-01-28T06:01:58;103011.66;;;1.92;100.00
15794;BME280;7999;51.208;4.244;2023-01-28T06:04:25;102996.50;;;1.95;100.00
15794;BME280;7999;51.208;4.244;2023-01-28T06:06:52;103003.81;;;2.02;100.00
15794;BME280;7999;51.208;4.244;2023-01-28T06:09:18;102996.50;;;1.95;100.00
15794;BME280;7999;51.208;4.244;2023-01-28T06:11:45;102997.09;;;2.04;100.00
15794;BME280;7999;51.208;4.244;2023-01-28T06:14:14;102997.78;;;2.02;100.00
15794;BME280;7999;51.208;4.244;2023-01-28T06:17:03;102995.81;;;1.86;100.00
15794;BME280;7999;51.208;4.244;2023-01-28T06:19:39;102996.34;;;1.69;100.00
15794;BME280;7999;51.208;4.244;2023-01-28T06:22:06;102996.13;;;1.66;100.00
15794;BME280;7999;51.208;4.244;2023-01-28T06:24:33;103003.03;;;1.67;100.00
15794;BME280;7999;51.208;4.244;2023-01-28T06:27:00;102993.00;;;1.70;100.00
15794;BME280;7999;51.208;4.244;2023-01-28T06:29:28;103006.03;;;1.73;100.00
15794;BME280;7999;51.208;4.244;2023-01-28T06:31:55;103001.25;;;1.66;100.00
15794;BME280;7999;51.208;4.244;2023-01-28T06:34:22;102995.34;;;1.67;100.00
15794;BME280;7999;51.208;4.244;2023-01-28T06:36:49;102995.78;;;1.61;100.00
15794;BME280;7999;51.208;4.244;2023-01-28T06:39:18;102996.56;;;1.72;100.00
15794;BME280;7999;51.208;4.244;2023-01-28T06:41:46;102996.91;;;1.65;100.00
15794;BME280;7999;51.208;4.244;2023-01-28T06:44:13;103000.22;;;1.64;100.00
15794;BME280;7999;51.208;4.244;2023-01-28T06:46:42;103002.16;;;1.66;100.00
15794;BME280;7999;51.208;4.244;2023-01-28T06:49:13;103004.63;;;1.65;100.00
15794;BME280;7999;51.208;4.244;2023-01-28T06:51:40;103015.09;;;1.56;100.00
15794;BME280;7999;51.208;4.244;2023-01-28T06:54:07;103015.09;;;1.68;100.00
15794;BME280;7999;51.208;4.244;2023-01-28T06:56:33;103007.50;;;1.58;100.00
15794;BME280;7999;51.208;4.244;2023-01-28T06:59:01;103017.06;;;1.60;100.00
15794;BME280;7999;51.208;4.244;2023-01-28T07:01:28;103021.53;;;1.63;100.00
15794;BME280;7999;51.208;4.244;2023-01-28T07:03:56;103029.56;;;1.67;100.00
15794;BME280;7999;51.208;4.244;2023-01-28T07:06:23;103023.97;;;1.61;100.00
15794;BME280;7999;51.208;4.244;2023-01-28T07:08:50;103021.22;;;1.70;100.00
15794;BME280;7999;51.208;4.244;2023-01-28T07:11:17;103022.88;;;1.69;100.00
15794;BME280;7999;51.208;4.244;2023-01-28T07:13:45;103027.13;;;1.69;100.00
15794;BME280;7999;51.208;4.244;2023-01-28T07:16:11;103018.66;;;1.58;100.00
15794;BME280;7999;51.208;4.244;2023-01-28T07:18:38;103036.13;;;1.64;100.00
15794;BME280;7999;51.208;4.244;2023-01-28T07:21:06;103032.66;;;1.75;100.00
15794;BME280;7999;51.208;4.244;2023-01-28T07:23:33;103031.53;;;1.83;100.00
15794;BME280;7999;51.208;4.244;2023-01-28T07:26:00;103039.31;;;1.96;100.00
15794;BME280;7999;51.208;4.244;2023-01-28T07:28:27;103038.44;;;1.84;100.00
15794;BME280;7999;51.208;4.244;2023-01-28T07:30:55;103047.69;;;1.82;100.00
15794;BME280;7999;51.208;4.244;2023-01-28T07:33:21;103052.03;;;1.83;100.00
15794;BME280;7999;51.208;4.244;2023-01-28T07:35:48;103049.19;;;1.67;100.00
15794;BME280;7999;51.208;4.244;2023-01-28T07:38:18;103039.63;;;1.52;100.00
15794;BME280;7999;51.208;4.244;2023-01-28T07:40:45;103048.63;;;1.59;100.00
15794;BME280;7999;51.208;4.244;2023-01-28T07:43:12;103043.81;;;1.64;100.00
15794;BME280;7999;51.208;4.244;2023-01-28T07:45:39;103043.59;;;1.61;100.00
15794;BME280;7999;51.208;4.244;2023-01-28T07:48:06;103040.72;;;1.68;100.00
15794;BME280;7999;51.208;4.244;2023-01-28T07:50:34;103035.59;;;1.68;100.00
15794;BME280;7999;51.208;4.244;2023-01-28T07:53:02;103035.91;;;1.61;100.00
15794;BME280;7999;51.208;4.244;2023-01-28T07:55:30;103033.81;;;1.67;100.00
15794;BME280;7999;51.208;4.244;2023-01-28T07:57:57;103045.28;;;1.60;100.00
15794;BME280;7999;51.208;4.244;2023-01-28T08:00:24;103035.84;;;1.47;100.00
15794;BME280;7999;51.208;4.244;2023-01-28T08:02:54;103041.41;;;1.53;100.00
15794;BME280;7999;51.208;4.244;2023-01-28T08:05:21;103052.06;;;1.60;100.00
15794;BME280;7999;51.208;4.244;2023-01-28T08:07:49;103046.97;;;1.48;100.00
15794;BME280;7999;51.208;4.244;2023-01-28T08:10:17;103061.47;;;1.47;100.00
15794;BME280;7999;51.208;4.244;2023-01-28T08:12:51;103060.22;;;1.54;100.00
15794;BME280;7999;51.208;4.244;2023-01-28T08:15:18;103062.47;;;1.49;100.00
15794;BME280;7999;51.208;4.244;2023-01-28T08:17:44;103061.00;;;1.53;100.00
15794;BME280;7999;51.208;4.244;2023-01-28T08:20:11;103063.31;;;1.73;100.00
15794;BME280;7999;51.208;4.244;2023-01-28T08:22:38;103070.91;;;1.72;100.00
15794;BME280;7999;51.208;4.244;2023-01-28T08:25:05;103074.16;;;1.58;100.00
15794;BME280;7999;51.208;4.244;2023-01-28T08:27:32;103068.81;;;1.54;100.00
15794;BME280;7999;51.208;4.244;2023-01-28T08:30:00;103076.84;;;1.47;100.00
15794;BME280;7999;51.208;4.244;2023-01-28T08:32:28;103085.53;;;1.49;100.00
15794;BME280;7999;51.208;4.244;2023-01-28T08:34:54;103077.50;;;1.45;100.00
15794;BME280;7999;51.208;4.244;2023-01-28T08:37:21;103087.31;;;1.50;100.00
15794;BME280;7999;51.208;4.244;2023-01-28T08:39:47;103086.66;;;1.53;100.00
15794;BME280;7999;51.208;4.244;2023-01-28T08:42:15;103098.69;;;1.66;100.00
15794;BME280;7999;51.208;4.244;2023-01-28T08:44:41;103104.38;;;1.50;100.00
15794;BME280;7999;51.208;4.244;2023-01-28T08:47:10;103108.47;;;1.60;100.00
15794;BME280;7999;51.208;4.244;2023-01-28T08:49:37;103100.13;;;1.62;100.00
15794;BME280;7999;51.208;4.244;2023-01-28T08:52:03;103107.16;;;1.65;100.00
15794;BME280;7999;51.208;4.244;2023-01-28T08:54:30;103107.69;;;1.61;100.00
15794;BME280;7999;51.208;4.244;2023-01-28T08:56:58;103106.91;;;1.62;100.00
15794;BME280;7999;51.208;4.244;2023-01-28T08:59:24;103116.97;;;1.70;100.00
15794;BME280;7999;51.208;4.244;2023-01-28T09:01:51;103102.47;;;1.59;100.00
15794;BME280;7999;51.208;4.244;2023-01-28T09:04:19;103106.91;;;1.62;100.00
15794;BME280;7999;51.208;4.244;2023-01-28T09:06:49;103120.50;;;1.61;100.00
15794;BME280;7999;51.208;4.244;2023-01-28T09:09:22;103113.16;;;1.53;100.00
15794;BME280;7999;51.208;4.244;2023-01-28T09:11:49;103113.03;;;1.64;100.00
15794;BME280;7999;51.208;4.244;2023-01-28T09:14:16;103114.72;;;1.63;100.00
15794;BME280;7999;51.208;4.244;2023-01-28T09:16:43;103106.91;;;1.73;100.00
15794;BME280;7999;51.208;4.244;2023-01-28T09:19:09;103110.25;;;1.84;100.00
15794;BME280;7999;51.208;4.244;2023-01-28T09:21:39;103099.47;;;2.13;100.00
15794;BME280;7999;51.208;4.244;2023-01-28T09:24:09;103111.06;;;2.20;100.00
15794;BME280;7999;51.208;4.244;2023-01-28T09:26:36;103121.09;;;2.16;100.00
15794;BME280;7999;51.208;4.244;2023-01-28T09:29:03;103113.59;;;1.83;100.00
15794;BME280;7999;51.208;4.244;2023-01-28T09:31:29;103118.47;;;2.03;100.00
15794;BME280;7999;51.208;4.244;2023-01-28T09:33:56;103130.31;;;1.78;100.00
15794;BME280;7999;51.208;4.244;2023-01-28T09:36:22;103139.03;;;1.68;100.00
15794;BME280;7999;51.208;4.244;2023-01-28T09:38:51;103137.59;;;1.72;100.00
15794;BME280;7999;51.208;4.244;2023-01-28T09:41:23;103136.22;;;1.77;100.00
15794;BME280;7999;51.208;4.244;2023-01-28T09:43:57;103139.78;;;1.79;100.00
15794;BME280;7999;51.208;4.244;2023-01-28T09:46:28;103143.28;;;1.68;100.00
15794;BME280;7999;51.208;4.244;2023-01-28T09:48:57;103140.16;;;1.72;100.00
15794;BME280;7999;51.208;4.244;2023-01-28T09:51:31;103135.81;;;1.71;100.00
15794;BME280;7999;51.208;4.244;2023-01-28T09:54:03;103139.22;;;1.83;100.00
15794;BME280;7999;51.208;4.244;2023-01-28T09:56:30;103130.28;;;2.01;100.00
15794;BME280;7999;51.208;4.244;2023-01-28T09:59:00;103135.88;;;1.96;100.00
15794;BME280;7999;51.208;4.244;2023-01-28T10:01:35;103122.03;;;2.05;100.00
15794;BME280;7999;51.208;4.244;2023-01-28T10:04:05;103125.81;;;2.10;100.00
15794;BME280;7999;51.208;4.244;2023-01-28T10:06:41;103139.63;;;2.12;100.00
15794;BME280;7999;51.208;4.244;2023-01-28T10:09:17;103136.44;;;2.40;100.00
15794;BME280;7999;51.208;4.244;2023-01-28T10:11:49;103144.91;;;2.39;100.00
15794;BME280;7999;51.208;4.244;2023-01-28T10:14:22;103139.47;;;2.34;100.00
15794;BME280;7999;51.208;4.244;2023-01-28T10:16:55;103143.69;;;2.70;100.00
15794;BME280;7999;51.208;4.244;2023-01-28T10:19:26;103131.63;;;2.69;100.00
15794;BME280;7999;51.208;4.244;2023-01-28T10:21:54;103143.06;;;2.61;100.00
15794;BME280;7999;51.208;4.244;2023-01-28T10:24:26;103141.91;;;2.69;100.00
15794;BME280;7999;51.208;4.244;2023-01-28T10:26:55;103145.63;;;2.86;100.00
15794;BME280;7999;51.208;4.244;2023-01-28T10:29:23;103149.06;;;3.25;100.00
15794;BME280;7999;51.208;4.244;2023-01-28T10:31:51;103147.00;;;3.19;100.00
15794;BME280;7999;51.208;4.244;2023-01-28T10:34:18;103146.50;;;2.87;100.00
15794;BME280;7999;51.208;4.244;2023-01-28T10:36:46;103149.94;;;2.74;100.00
15794;BME280;7999;51.208;4.244;2023-01-28T10:39:13;103144.25;;;2.66;100.00
15794;BME280;7999;51.208;4.244;2023-01-28T10:41:42;103146.41;;;2.60;100.00
15794;BME280;7999;51.208;4.244;2023-01-28T10:44:15;103153.50;;;2.76;100.00
15794;BME280;7999;51.208;4.244;2023-01-28T10:46:44;103153.84;;;2.94;100.00
15794;BME280;7999;51.208;4.244;2023-01-28T10:49:12;103144.53;;;2.83;100.00
15794;BME280;7999;51.208;4.244;2023-01-28T10:51:42;103154.84;;;2.71;100.00
15794;BME280;7999;51.208;4.244;2023-01-28T10:54:17;103156.09;;;2.89;100.00
15794;BME280;7999;51.208;4.244;2023-01-28T10:56:46;103145.47;;;2.71;100.00
15794;BME280;7999;51.208;4.244;2023-01-28T10:59:18;103150.84;;;2.38;100.00
15794;BME280;7999;51.208;4.244;2023-01-28T11:01:46;103145.56;;;2.48;100.00
15794;BME280;7999;51.208;4.244;2023-01-28T11:04:16;103155.47;;;2.55;100.00
15794;BME280;7999;51.208;4.244;2023-01-28T11:06:50;103146.69;;;2.52;100.00
15794;BME280;7999;51.208;4.244;2023-01-28T11:09:22;103148.47;;;2.77;100.00
15794;BME280;7999;51.208;4.244;2023-01-28T11:11:55;103137.41;;;2.78;100.00
15794;BME280;7999;51.208;4.244;2023-01-28T11:14:23;103142.34;;;2.75;100.00
15794;BME280;7999;51.208;4.244;2023-01-28T11:16:51;103142.53;;;2.78;100.00
15794;BME280;7999;51.208;4.244;2023-01-28T11:19:19;103138.19;;;2.77;100.00
15794;BME280;7999;51.208;4.244;2023-01-28T11:21:48;103134.13;;;3.06;100.00
15794;BME280;7999;51.208;4.244;2023-01-28T11:24:20;103134.88;;;2.92;100.00
15794;BME280;7999;51.208;4.244;2023-01-28T11:26:48;103124.38;;;2.89;100.00
15794;BME280;7999;51.208;4.244;2023-01-28T11:29:23;103125.00;;;2.98;100.00
15794;BME280;7999;51.208;4.244;2023-01-28T11:31:51;103128.16;;;2.94;100.00
15794;BME280;7999;51.208;4.244;2023-01-28T11:34:18;103128.72;;;2.90;100.00
15794;BME280;7999;51.208;4.244;2023-01-28T11:36:49;103111.59;;;3.28;100.00
15794;BME280;7999;51.208;4.244;2023-01-28T11:39:17;103091.44;;;3.08;100.00
15794;BME280;7999;51.208;4.244;2023-01-28T11:41:46;103092.16;;;3.32;100.00
15794;BME280;7999;51.208;4.244;2023-01-28T11:44:14;103085.31;;;3.19;100.00
15794;BME280;7999;51.208;4.244;2023-01-28T11:49:36;103066.47;;;2.81;100.00
15794;BME280;7999;51.208;4.244;2023-01-28T11:52:11;103059.72;;;3.07;100.00
15794;BME280;7999;51.208;4.244;2023-01-28T11:54:44;103044.00;;;3.16;100.00
15794;BME280;7999;51.208;4.244;2023-01-28T11:57:20;103045.97;;;3.33;100.00
15794;BME280;7999;51.208;4.244;2023-01-28T11:59:52;103051.09;;;3.47;100.00
15794;BME280;7999;51.208;4.244;2023-01-28T12:02:25;103038.28;;;3.33;100.00
15794;BME280;7999;51.208;4.244;2023-01-28T12:05:05;103024.81;;;3.11;100.00
15794;BME280;7999;51.208;4.244;2023-01-28T12:07:36;103012.06;;;3.13;100.00
15794;BME280;7999;51.208;4.244;2023-01-28T12:10:09;103003.88;;;3.31;100.00
15794;BME280;7999;51.208;4.244;2023-01-28T12:12:41;103011.72;;;3.48;100.00
15794;BME280;7999;51.208;4.244;2023-01-28T12:15:22;103011.94;;;3.24;100.00
15794;BME280;7999;51.208;4.244;2023-01-28T12:17:58;103018.41;;;3.31;100.00
15794;BME280;7999;51.208;4.244;2023-01-28T12:20:30;102995.63;;;3.24;100.00
15794;BME280;7999;51.208;4.244;2023-01-28T12:23:03;102982.31;;;3.16;100.00
15794;BME280;7999;51.208;4.244;2023-01-28T12:25:42;102989.22;;;3.17;100.00
15794;BME280;7999;51.208;4.244;2023-01-28T12:28:14;102978.16;;;3.18;100.00
15794;BME280;7999;51.208;4.244;2023-01-28T12:30:54;102974.69;;;2.91;100.00
15794;BME280;7999;51.208;4.244;2023-01-28T12:36:09;102997.13;;;2.94;100.00
15794;BME280;7999;51.208;4.244;2023-01-28T12:38:43;102997.94;;;3.06;100.00
15794;BME280;7999;51.208;4.244;2023-01-28T12:41:14;103017.00;;;3.09;100.00
15794;BME280;7999;51.208;4.244;2023-01-28T12:43:44;103014.72;;;3.01;100.00
15794;BME280;7999;51.208;4.244;2023-01-28T12:46:16;103030.03;;;2.99;100.00
15794;BME280;7999;51.208;4.244;2023-01-28T12:48:45;103030.53;;;3.20;100.00
15794;BME280;7999;51.208;4.244;2023-01-28T12:51:15;103027.47;;;3.39;100.00
15794;BME280;7999;51.208;4.244;2023-01-28T12:53:45;103035.41;;;3.29;100.00
15794;BME280;7999;51.208;4.244;2023-01-28T12:56:14;103045.47;;;3.39;100.00
15794;BME280;7999;51.208;4.244;2023-01-28T12:58:43;103049.13;;;3.42;100.00
15794;BME280;7999;51.208;4.244;2023-01-28T13:01:13;103047.44;;;3.56;100.00
15794;BME280;7999;51.208;4.244;2023-01-28T13:03:42;103046.34;;;3.53;100.00
15794;BME280;7999;51.208;4.244;2023-01-28T13:06:16;103041.81;;;3.62;100.00
15794;BME280;7999;51.208;4.244;2023-01-28T13:08:45;103049.28;;;3.85;100.00
15794;BME280;7999;51.208;4.244;2023-01-28T13:11:13;103053.84;;;3.76;100.00
15794;BME280;7999;51.208;4.244;2023-01-28T13:13:41;103054.81;;;3.78;100.00
15794;BME280;7999;51.208;4.244;2023-01-28T13:16:10;103053.34;;;3.55;100.00
15794;BME280;7999;51.208;4.244;2023-01-28T13:18:44;103063.75;;;3.70;100.00
15794;BME280;7999;51.208;4.244;2023-01-28T13:21:12;103066.31;;;3.70;100.00
15794;BME280;7999;51.208;4.244;2023-01-28T13:23:42;103057.97;;;3.87;100.00
15794;BME280;7999;51.208;4.244;2023-01-28T13:26:10;103055.03;;;3.68;100.00
15794;BME280;7999;51.208;4.244;2023-01-28T13:28:37;103051.91;;;3.46;100.00